Time;durP1;ratioP1;P1;durP2;ratioP2;P2;SDS_P1;SDS_P2;PMS_P1;PMS_P2;Temp;Humidity;BMP_temperature;BMP_pressure;BME280_temperature;BME280_humidity;BME280_pressure;Samples;Min_cycle;Max_cycle;Signal;HPM_P1;HPM_P2
2022/03/14 00:01:37;;;;;;;43.80;22.13;;;;;;;;;;4899836;29;20044;-71
2022/03/14 00:04:03;;;;;;;39.67;21.50;;;;;;;;;;4899777;29;20024;-74
2022/03/14 00:06:29;;;;;;;39.25;22.40;;;;;;;;;;4899960;29;20116;-64
2022/03/14 00:08:57;;;;;;;37.30;21.45;;;;;;;;;;4897979;29;20379;-67
2022/03/14 00:11:26;;;;;;;39.35;21.83;;;;;;;;;;4899880;29;20060;-65
2022/03/14 00:13:54;;;;;;;39.60;23.58;;;;;;;;;;4892647;29;20048;-64
2022/03/14 00:16:25;;;;;;;43.78;24.27;;;;;;;;;;4899606;29;20044;-65
2022/03/14 00:18:52;;;;;;;59.17;29.65;;;;;;;;;;4899407;29;20056;-64
2022/03/14 00:21:20;;;;;;;50.75;27.83;;;;;;;;;;4899397;29;20051;-64
2022/03/14 00:23:46;;;;;;;51.15;26.83;;;;;;;;;;4899134;29;20044;-65
2022/03/14 00:26:12;;;;;;;62.33;29.88;;;;;;;;;;4898876;29;20039;-63
2022/03/14 00:28:38;;;;;;;45.88;25.02;;;;;;;;;;4899440;29;20029;-63
2022/03/14 00:31:03;;;;;;;44.67;25.38;;;;;;;;;;4898034;29;20036;-65
2022/03/14 00:33:29;;;;;;;42.05;23.73;;;;;;;;;;4898920;29;20048;-64
2022/03/14 00:35:56;;;;;;;38.70;23.13;;;;;;;;;;4899753;29;20072;-65
2022/03/14 00:38:25;;;;;;;38.33;21.85;;;;;;;;;;4898982;29;20115;-65
2022/03/14 00:40:51;;;;;;;42.95;22.98;;;;;;;;;;4896907;29;20058;-64
2022/03/14 00:43:18;;;;;;;37.83;23.35;;;;;;;;;;4898855;29;20486;-66
2022/03/14 00:45:44;;;;;;;42.50;23.50;;;;;;;;;;4898906;29;20032;-65
2022/03/14 00:48:10;;;;;;;46.40;23.33;;;;;;;;;;4899264;29;20604;-65
2022/03/14 00:50:36;;;;;;;48.63;24.15;;;;;;;;;;4897855;29;20104;-64
2022/03/14 00:53:02;;;;;;;39.20;23.38;;;;;;;;;;4899026;29;20032;-63
2022/03/14 00:55:28;;;;;;;44.88;24.35;;;;;;;;;;4898934;29;20029;-69
2022/03/14 00:57:54;;;;;;;48.05;24.05;;;;;;;;;;4899060;29;20044;-65
2022/03/14 01:00:20;;;;;;;53.75;24.40;;;;;;;;;;4898705;29;20032;-64
2022/03/14 01:02:50;;;;;;;50.30;27.85;;;;;;;;;;4898919;29;20062;-64
2022/03/14 01:05:19;;;;;;;49.83;25.85;;;;;;;;;;4898786;29;20040;-63
2022/03/14 01:07:45;;;;;;;55.38;27.35;;;;;;;;;;4898834;29;20033;-65
2022/03/14 01:10:13;;;;;;;51.20;26.55;;;;;;;;;;4898801;29;20032;-64
2022/03/14 01:12:39;;;;;;;64.85;27.95;;;;;;;;;;4896177;29;20119;-63
2022/03/14 01:15:06;;;;;;;49.88;24.02;;;;;;;;;;4897826;29;20060;-63
2022/03/14 01:17:32;;;;;;;52.03;24.20;;;;;;;;;;4898640;29;20040;-64
2022/03/14 01:19:57;;;;;;;57.35;25.52;;;;;;;;;;4898473;29;20033;-65
2022/03/14 01:22:23;;;;;;;53.30;24.95;;;;;;;;;;4898933;29;20084;-64
2022/03/14 01:24:49;;;;;;;53.65;26.20;;;;;;;;;;4898826;29;20107;-66
2022/03/14 01:27:14;;;;;;;46.22;23.60;;;;;;;;;;4898475;29;20065;-65
2022/03/14 01:29:40;;;;;;;59.05;23.98;;;;;;;;;;4897947;29;20043;-66
2022/03/14 01:32:07;;;;;;;42.60;21.70;;;;;;;;;;4898027;29;20453;-68
2022/03/14 01:34:34;;;;;;;48.03;22.65;;;;;;;;;;4898349;29;20044;-67
2022/03/14 01:37:01;;;;;;;43.50;18.65;;;;;;;;;;4897371;29;20028;-67
2022/03/14 01:39:26;;;;;;;44.30;18.98;;;;;;;;;;4898165;29;20045;-71
2022/03/14 01:41:52;;;;;;;38.85;19.33;;;;;;;;;;4898037;29;20090;-65
2022/03/14 01:44:19;;;;;;;37.40;18.88;;;;;;;;;;4898012;29;20040;-64
2022/03/14 01:46:45;;;;;;;28.95;16.25;;;;;;;;;;4898350;29;20036;-73
2022/03/14 01:49:11;;;;;;;29.70;16.85;;;;;;;;;;4898054;29;20088;-69
2022/03/14 01:51:40;;;;;;;31.98;17.23;;;;;;;;;;4898079;29;20367;-67
2022/03/14 01:54:10;;;;;;;35.78;17.35;;;;;;;;;;4898088;29;20049;-68
2022/03/14 01:56:38;;;;;;;32.20;17.77;;;;;;;;;;4898629;29;20052;-72
2022/03/14 01:59:06;;;;;;;35.17;19.42;;;;;;;;;;4897913;29;20045;-73
2022/03/14 02:01:34;;;;;;;59.83;26.63;;;;;;;;;;4898651;29;20169;-64
2022/03/14 02:04:00;;;;;;;62.22;26.05;;;;;;;;;;4899240;29;20060;-65
2022/03/14 02:06:29;;;;;;;45.83;25.08;;;;;;;;;;4899110;29;20033;-64
2022/03/14 02:08:55;;;;;;;52.92;24.95;;;;;;;;;;4898948;29;20186;-63
2022/03/14 02:11:21;;;;;;;42.20;22.27;;;;;;;;;;4898823;29;20029;-63
2022/03/14 02:13:47;;;;;;;41.95;21.40;;;;;;;;;;4898735;29;20076;-63
2022/03/14 02:16:13;;;;;;;39.28;21.25;;;;;;;;;;4898907;29;20433;-63
2022/03/14 02:18:39;;;;;;;65.05;27.65;;;;;;;;;;4898767;29;20035;-64
2022/03/14 02:21:08;;;;;;;50.72;24.83;;;;;;;;;;4898817;29;20403;-63
2022/03/14 02:23:34;;;;;;;49.83;25.67;;;;;;;;;;4894529;29;20531;-70
2022/03/14 02:26:00;;;;;;;84.40;32.72;;;;;;;;;;4897506;29;20037;-65
2022/03/14 02:28:27;;;;;;;68.50;33.28;;;;;;;;;;4897348;29;20036;-65
2022/03/14 02:30:54;;;;;;;91.07;34.95;;;;;;;;;;4897177;29;20028;-64
2022/03/14 02:33:20;;;;;;;78.05;33.85;;;;;;;;;;4897406;29;20052;-64
2022/03/14 02:35:49;;;;;;;77.25;32.95;;;;;;;;;;4897528;29;20536;-64
2022/03/14 02:38:17;;;;;;;67.78;31.17;;;;;;;;;;4897855;29;20115;-63
2022/03/14 02:40:47;;;;;;;82.35;33.70;;;;;;;;;;4897406;29;20039;-64
2022/03/14 02:43:15;;;;;;;75.13;32.17;;;;;;;;;;4897363;29;20037;-64
2022/03/14 02:45:46;;;;;;;71.65;31.52;;;;;;;;;;4897367;29;20377;-64
2022/03/14 02:48:13;;;;;;;70.97;30.52;;;;;;;;;;4897402;29;20041;-63
2022/03/14 02:50:42;;;;;;;68.32;30.75;;;;;;;;;;4897121;29;20384;-64
2022/03/14 02:53:13;;;;;;;74.80;33.88;;;;;;;;;;4897345;29;20476;-64
2022/03/14 02:55:39;;;;;;;75.60;31.42;;;;;;;;;;4897430;29;20036;-64
2022/03/14 02:58:06;;;;;;;75.15;32.70;;;;;;;;;;4896847;29;20028;-64
2022/03/14 03:00:35;;;;;;;77.47;34.10;;;;;;;;;;4897032;29;20072;-64
2022/03/14 03:03:06;;;;;;;67.88;32.28;;;;;;;;;;4897181;29;20101;-65
2022/03/14 03:05:36;;;;;;;70.85;32.15;;;;;;;;;;4897132;29;20048;-63
2022/03/14 03:08:06;;;;;;;96.40;32.72;;;;;;;;;;4896903;29;20033;-62
2022/03/14 03:10:34;;;;;;;104.90;37.88;;;;;;;;;;4896704;29;20329;-62
2022/03/14 03:13:00;;;;;;;95.35;36.30;;;;;;;;;;4896478;29;20844;-64
2022/03/14 03:15:26;;;;;;;76.00;33.47;;;;;;;;;;4897076;29;20396;-64
2022/03/14 03:17:52;;;;;;;83.78;31.27;;;;;;;;;;4897032;29;20399;-64
2022/03/14 03:20:19;;;;;;;92.65;36.47;;;;;;;;;;4896488;29;20443;-64
2022/03/14 03:22:44;;;;;;;83.72;32.22;;;;;;;;;;4897185;29;20553;-63
2022/03/14 03:25:10;;;;;;;83.60;33.33;;;;;;;;;;4896617;29;20062;-63
2022/03/14 03:27:36;;;;;;;96.75;37.10;;;;;;;;;;4896716;29;20408;-64
2022/03/14 03:30:04;;;;;;;79.53;31.63;;;;;;;;;;4896481;29;20044;-68
2022/03/14 03:32:30;;;;;;;72.50;31.13;;;;;;;;;;4896800;29;20116;-69
2022/03/14 03:34:56;;;;;;;99.57;35.38;;;;;;;;;;4896080;29;20123;-65
2022/03/14 03:37:22;;;;;;;90.75;37.22;;;;;;;;;;4896802;29;20104;-65
2022/03/14 03:39:48;;;;;;;106.35;36.50;;;;;;;;;;4896218;29;20063;-64
2022/03/14 03:42:13;;;;;;;71.43;30.83;;;;;;;;;;4896439;29;20400;-73
2022/03/14 03:44:39;;;;;;;82.43;33.38;;;;;;;;;;4896150;29;20476;-67
2022/03/14 03:47:05;;;;;;;96.35;32.97;;;;;;;;;;4896111;29;20033;-67
2022/03/14 03:49:32;;;;;;;115.57;39.70;;;;;;;;;;4896198;29;20479;-66
2022/03/14 03:51:58;;;;;;;117.60;39.35;;;;;;;;;;4896079;29;20399;-65
2022/03/14 03:54:23;;;;;;;98.88;38.15;;;;;;;;;;4911160;29;20028;-64
2022/03/14 03:56:49;;;;;;;103.63;36.92;;;;;;;;;;4896735;29;20523;-68
2022/03/14 03:59:16;;;;;;;116.78;42.40;;;;;;;;;;4894739;29;20028;-63
2022/03/14 04:01:43;;;;;;;129.25;43.80;;;;;;;;;;4910917;29;20108;-63
2022/03/14 04:04:10;;;;;;;121.00;42.42;;;;;;;;;;4896544;29;20379;-63
2022/03/14 04:06:36;;;;;;;132.10;43.70;;;;;;;;;;4896539;29;20043;-64
2022/03/14 04:09:04;;;;;;;117.82;43.92;;;;;;;;;;4896251;29;20091;-63
2022/03/14 04:11:30;;;;;;;109.72;42.92;;;;;;;;;;4896348;29;20036;-64
2022/03/14 04:13:58;;;;;;;101.85;40.97;;;;;;;;;;4896328;29;20059;-65
2022/03/14 04:16:26;;;;;;;131.80;43.78;;;;;;;;;;4895146;29;20057;-65
2022/03/14 04:18:55;;;;;;;114.00;40.67;;;;;;;;;;4896478;29;20028;-64
2022/03/14 04:21:21;;;;;;;90.38;38.47;;;;;;;;;;4895942;29;20508;-63
2022/03/14 04:23:47;;;;;;;90.07;36.90;;;;;;;;;;4896880;29;20044;-63
2022/03/14 04:26:13;;;;;;;94.60;38.75;;;;;;;;;;4899643;29;20041;-66
2022/03/14 04:28:41;;;;;;;92.93;37.35;;;;;;;;;;4899637;29;20035;-64
2022/03/14 04:31:08;;;;;;;103.30;37.17;;;;;;;;;;4899415;29;20036;-64
2022/03/14 04:33:34;;;;;;;106.72;39.72;;;;;;;;;;4899435;29;20040;-63
2022/03/14 04:36:00;;;;;;;111.43;38.85;;;;;;;;;;4899447;29;20484;-62
2022/03/14 04:38:27;;;;;;;115.15;39.08;;;;;;;;;;4899199;29;20059;-64
2022/03/14 04:40:56;;;;;;;94.65;35.80;;;;;;;;;;4899109;29;20124;-64
2022/03/14 04:43:22;;;;;;;86.68;35.47;;;;;;;;;;4898602;29;20060;-63
2022/03/14 04:45:49;;;;;;;106.65;35.90;;;;;;;;;;4898456;29;20606;-62
2022/03/14 04:48:15;;;;;;;80.82;31.95;;;;;;;;;;4899193;29;20039;-63
2022/03/14 04:50:42;;;;;;;64.22;29.92;;;;;;;;;;4899799;29;20051;-62
2022/03/14 04:53:09;;;;;;;66.88;30.83;;;;;;;;;;4899133;29;20350;-66
2022/03/14 04:55:36;;;;;;;62.30;29.33;;;;;;;;;;4899821;29;20113;-63
2022/03/14 04:58:03;;;;;;;72.45;34.05;;;;;;;;;;4899459;29;20020;-63
2022/03/14 05:00:29;;;;;;;67.18;30.67;;;;;;;;;;4899428;29;20385;-62
2022/03/14 05:03:03;;;;;;;63.40;30.83;;;;;;;;;;4899560;29;20027;-61
2022/03/14 05:05:32;;;;;;;72.10;30.48;;;;;;;;;;4899463;29;20050;-63
2022/03/14 05:07:58;;;;;;;45.70;21.02;;;;;;;;;;4899603;29;20032;-63
2022/03/14 05:10:24;;;;;;;33.92;18.10;;;;;;;;;;4898396;29;20128;-63
2022/03/14 05:12:52;;;;;;;36.50;19.15;;;;;;;;;;4899406;29;20021;-64
2022/03/14 05:15:18;;;;;;;37.30;19.55;;;;;;;;;;4897448;29;20132;-67
2022/03/14 05:17:45;;;;;;;31.15;17.52;;;;;;;;;;4898794;29;20088;-63
2022/03/14 05:20:12;;;;;;;36.65;17.55;;;;;;;;;;4899202;29;20087;-63
2022/03/14 05:22:43;;;;;;;29.10;16.70;;;;;;;;;;4898934;29;20135;-64
2022/03/14 05:25:10;;;;;;;31.08;16.42;;;;;;;;;;4899063;29;20033;-63
2022/03/14 05:27:39;;;;;;;26.85;16.35;;;;;;;;;;4899254;29;20024;-63
2022/03/14 05:30:06;;;;;;;28.67;15.05;;;;;;;;;;4899155;29;20036;-69
2022/03/14 05:32:32;;;;;;;38.92;15.90;;;;;;;;;;4895407;29;20036;-69
2022/03/14 05:34:58;;;;;;;29.85;16.92;;;;;;;;;;4897035;29;20092;-72
2022/03/14 05:37:24;;;;;;;24.48;15.43;;;;;;;;;;4898689;29;20032;-71
2022/03/14 05:39:50;;;;;;;25.85;15.55;;;;;;;;;;4896665;29;20039;-70
2022/03/14 05:42:16;;;;;;;34.63;15.90;;;;;;;;;;4897284;29;20387;-67
2022/03/14 05:44:44;;;;;;;32.72;15.27;;;;;;;;;;4898293;29;20096;-72
2022/03/14 05:47:10;;;;;;;26.13;14.48;;;;;;;;;;4912623;29;20130;-69
2022/03/14 05:49:35;;;;;;;34.70;15.45;;;;;;;;;;4913155;29;20402;-70
2022/03/14 05:52:02;;;;;;;27.40;15.18;;;;;;;;;;4898487;29;20111;-70
2022/03/14 05:54:28;;;;;;;27.58;14.38;;;;;;;;;;4896876;29;20041;-69
2022/03/14 05:56:58;;;;;;;26.17;14.02;;;;;;;;;;4897513;29;20084;-71
2022/03/14 05:59:24;;;;;;;30.25;14.13;;;;;;;;;;4897970;29;20040;-70
2022/03/14 06:01:50;;;;;;;21.60;13.02;;;;;;;;;;4898112;29;20047;-71
2022/03/14 06:04:16;;;;;;;30.55;14.93;;;;;;;;;;4897834;29;20495;-71
2022/03/14 06:06:42;;;;;;;21.52;13.82;;;;;;;;;;4897944;29;20538;-71
2022/03/14 06:09:08;;;;;;;21.33;13.23;;;;;;;;;;4898748;29;20120;-71
2022/03/14 06:11:34;;;;;;;22.65;13.68;;;;;;;;;;4898702;29;20035;-69
2022/03/14 06:14:01;;;;;;;22.92;13.75;;;;;;;;;;4898160;29;20044;-77
2022/03/14 06:16:27;;;;;;;28.60;15.13;;;;;;;;;;4898570;29;20394;-77
2022/03/14 06:18:53;;;;;;;24.75;14.93;;;;;;;;;;4897076;29;20407;-79
2022/03/14 06:21:18;;;;;;;26.30;14.70;;;;;;;;;;4898080;29;20032;-75
2022/03/14 06:23:44;;;;;;;36.67;15.43;;;;;;;;;;4897797;29;20037;-77
2022/03/14 06:26:11;;;;;;;25.17;14.30;;;;;;;;;;4897758;29;20028;-80
2022/03/14 06:28:38;;;;;;;27.33;15.45;;;;;;;;;;4897701;29;20535;-79
2022/03/14 06:31:03;;;;;;;28.98;16.48;;;;;;;;;;4897642;29;20112;-78
2022/03/14 06:33:29;;;;;;;29.27;12.05;;;;;;;;;;4897983;29;20041;-77
2022/03/14 06:35:55;;;;;;;18.88;11.77;;;;;;;;;;4897856;29;20111;-70
2022/03/14 06:38:21;;;;;;;32.83;13.20;;;;;;;;;;4897709;29;20044;-79
2022/03/14 06:40:47;;;;;;;27.63;11.65;;;;;;;;;;4896002;29;20028;-76
2022/03/14 06:43:14;;;;;;;21.02;12.23;;;;;;;;;;4895340;29;20036;-79
2022/03/14 06:45:40;;;;;;;25.40;12.43;;;;;;;;;;4898557;29;20036;-74
2022/03/14 06:48:06;;;;;;;19.17;11.93;;;;;;;;;;4896225;29;20407;-76
2022/03/14 06:50:36;;;;;;;18.60;12.15;;;;;;;;;;4896504;29;20040;-79
2022/03/14 06:53:03;;;;;;;26.00;16.50;;;;;;;;;;4897353;29;20036;-77
2022/03/14 06:55:29;;;;;;;27.23;17.52;;;;;;;;;;4897002;29;20032;-76
2022/03/14 06:57:55;;;;;;;29.52;18.23;;;;;;;;;;4897157;29;20361;-72
2022/03/14 07:00:21;;;;;;;33.03;17.38;;;;;;;;;;4897503;29;20038;-80
2022/03/14 07:02:46;;;;;;;27.70;17.00;;;;;;;;;;4896945;29;20033;-80
2022/03/14 07:05:17;;;;;;;30.98;18.08;;;;;;;;;;4896891;29;20033;-78
2022/03/14 07:07:45;;;;;;;28.75;17.63;;;;;;;;;;4897166;29;20168;-76
2022/03/14 07:10:13;;;;;;;32.63;18.88;;;;;;;;;;4897129;29;20028;-78
2022/03/14 07:12:47;;;;;;;30.02;17.05;;;;;;;;;;4897142;29;20040;-77
2022/03/14 07:15:18;;;;;;;25.60;16.20;;;;;;;;;;4896972;29;20131;-77
2022/03/14 07:17:44;;;;;;;25.35;15.20;;;;;;;;;;4897389;29;20051;-77
2022/03/14 07:20:11;;;;;;;24.45;14.88;;;;;;;;;;4896927;29;20029;-79
2022/03/14 07:22:50;;;;;;;21.85;13.60;;;;;;;;;;4896992;29;20040;-74
2022/03/14 07:25:27;;;;;;;21.33;14.15;;;;;;;;;;4896862;29;20040;-69
2022/03/14 07:27:54;;;;;;;30.38;15.07;;;;;;;;;;4896536;29;20115;-69
2022/03/14 07:30:21;;;;;;;23.80;13.98;;;;;;;;;;4896486;29;20053;-79
2022/03/14 07:32:47;;;;;;;32.60;14.38;;;;;;;;;;4897010;29;20033;-70
2022/03/14 07:35:13;;;;;;;27.08;14.50;;;;;;;;;;4897216;29;20032;-74
2022/03/14 07:37:40;;;;;;;23.05;12.63;;;;;;;;;;4897349;29;20037;-71
2022/03/14 07:40:08;;;;;;;15.48;10.50;;;;;;;;;;4896873;29;20399;-75
2022/03/14 07:42:43;;;;;;;25.73;12.60;;;;;;;;;;4896993;29;20040;-74
2022/03/14 07:45:10;;;;;;;21.48;11.88;;;;;;;;;;4896754;29;20574;-74
2022/03/14 07:47:36;;;;;;;17.83;11.48;;;;;;;;;;4896394;29;20440;-72
2022/03/14 07:50:05;;;;;;;14.23;9.68;;;;;;;;;;4896700;29;20041;-73
2022/03/14 07:52:31;;;;;;;20.10;11.82;;;;;;;;;;4896334;29;20036;-72
2022/03/14 07:55:00;;;;;;;19.58;11.10;;;;;;;;;;4896606;29;20109;-76
2022/03/14 07:57:26;;;;;;;19.42;11.63;;;;;;;;;;4897483;29;20033;-74
2022/03/14 07:59:52;;;;;;;18.50;11.75;;;;;;;;;;4900370;29;20106;-79
2022/03/14 08:02:18;;;;;;;19.95;12.23;;;;;;;;;;4901107;29;20116;-81
2022/03/14 08:04:44;;;;;;;17.17;11.32;;;;;;;;;;4901887;29;20041;-79
2022/03/14 08:07:09;;;;;;;14.55;10.38;;;;;;;;;;4901063;29;20029;-67
2022/03/14 08:09:35;;;;;;;18.25;10.15;;;;;;;;;;4901114;29;20506;-79
2022/03/14 08:12:04;;;;;;;14.70;9.95;;;;;;;;;;4901025;29;20476;-78
2022/03/14 08:14:32;;;;;;;14.15;9.60;;;;;;;;;;4900992;29;20116;-76
2022/03/14 08:16:58;;;;;;;15.00;9.95;;;;;;;;;;4901852;29;20032;-81
2022/03/14 08:19:25;;;;;;;13.63;9.18;;;;;;;;;;4900902;29;20503;-72
2022/03/14 08:21:51;;;;;;;16.83;9.52;;;;;;;;;;4900203;29;20123;-82
2022/03/14 08:24:18;;;;;;;16.60;9.98;;;;;;;;;;4899512;29;20401;-80
2022/03/14 08:26:44;;;;;;;19.20;10.35;;;;;;;;;;4899454;29;20032;-82
2022/03/14 08:29:10;;;;;;;16.67;10.02;;;;;;;;;;4899377;29;20028;-77
2022/03/14 08:31:37;;;;;;;17.70;10.00;;;;;;;;;;4899277;29;20025;-75
2022/03/14 08:34:04;;;;;;;13.70;9.02;;;;;;;;;;4899498;29;20040;-76
2022/03/14 08:36:31;;;;;;;14.63;9.35;;;;;;;;;;4899549;29;20168;-76
2022/03/14 08:38:56;;;;;;;14.13;9.45;;;;;;;;;;4899589;29;20036;-73
2022/03/14 08:41:22;;;;;;;14.25;9.25;;;;;;;;;;4901102;29;20340;-77
2022/03/14 08:43:48;;;;;;;12.85;8.20;;;;;;;;;;4900106;29;20123;-80
2022/03/14 08:46:17;;;;;;;12.75;7.70;;;;;;;;;;4899219;29;20335;-77
2022/03/14 08:48:43;;;;;;;20.40;9.00;;;;;;;;;;4899269;29;20036;-78
2022/03/14 08:51:08;;;;;;;13.00;8.15;;;;;;;;;;4897561;29;20484;-82
2022/03/14 08:53:34;;;;;;;11.48;7.82;;;;;;;;;;4899227;29;20036;-78
2022/03/14 08:56:02;;;;;;;14.98;8.90;;;;;;;;;;4899672;29;20031;-80
2022/03/14 08:58:31;;;;;;;15.48;9.63;;;;;;;;;;4899708;29;20139;-76
2022/03/14 09:00:59;;;;;;;15.13;9.57;;;;;;;;;;4900057;29;20116;-82
2022/03/14 09:03:28;;;;;;;13.05;7.75;;;;;;;;;;4900020;29;20069;-80
2022/03/14 09:05:57;;;;;;;11.25;7.65;;;;;;;;;;4898924;29;20473;-79
2022/03/14 09:08:24;;;;;;;10.48;7.07;;;;;;;;;;4900306;29;20064;-81
2022/03/14 09:10:50;;;;;;;12.80;6.32;;;;;;;;;;4899644;29;20417;-76
2022/03/14 09:13:17;;;;;;;11.05;6.65;;;;;;;;;;4898670;29;20085;-74
2022/03/14 09:15:43;;;;;;;11.50;6.28;;;;;;;;;;4898498;29;20052;-72
2022/03/14 09:18:09;;;;;;;7.30;5.28;;;;;;;;;;4899013;29;20089;-80
2022/03/14 09:20:39;;;;;;;9.90;6.00;;;;;;;;;;4899283;29;20112;-81
2022/03/14 09:23:08;;;;;;;10.60;6.10;;;;;;;;;;4900600;29;20045;-79
2022/03/14 09:25:34;;;;;;;8.48;4.97;;;;;;;;;;4899129;29;20129;-83
2022/03/14 09:28:00;;;;;;;7.22;4.90;;;;;;;;;;4899061;29;20041;-79
2022/03/14 09:30:26;;;;;;;11.23;6.00;;;;;;;;;;4898680;29;20036;-77
2022/03/14 09:32:54;;;;;;;6.57;4.80;;;;;;;;;;4898721;29;20028;-74
2022/03/14 09:35:21;;;;;;;8.57;5.50;;;;;;;;;;4898732;29;20107;-70
2022/03/14 09:37:49;;;;;;;7.55;5.28;;;;;;;;;;4912974;29;20040;-72
2022/03/14 09:40:18;;;;;;;5.72;4.63;;;;;;;;;;4898194;29;20039;-73
2022/03/14 09:42:49;;;;;;;8.60;4.63;;;;;;;;;;4898264;29;20048;-78
2022/03/14 09:45:15;;;;;;;6.95;5.18;;;;;;;;;;4898333;29;20040;-73
2022/03/14 09:47:44;;;;;;;7.40;5.03;;;;;;;;;;4898191;29;20039;-76
2022/03/14 09:50:15;;;;;;;9.98;5.32;;;;;;;;;;4898005;29;20051;-76
2022/03/14 09:52:43;;;;;;;7.75;5.25;;;;;;;;;;4897851;29;20539;-71
2022/03/14 09:55:11;;;;;;;9.63;5.15;;;;;;;;;;4898088;29;20029;-74
2022/03/14 09:57:38;;;;;;;8.60;5.40;;;;;;;;;;4897133;29;20063;-74
2022/03/14 10:00:06;;;;;;;10.23;5.50;;;;;;;;;;4897750;29;20176;-75
2022/03/14 10:02:40;;;;;;;10.20;4.97;;;;;;;;;;4898179;29;20125;-73
2022/03/14 10:05:08;;;;;;;12.45;6.28;;;;;;;;;;4898004;29;20476;-73
2022/03/14 10:07:35;;;;;;;8.75;6.05;;;;;;;;;;4897984;29;20024;-74
2022/03/14 10:10:06;;;;;;;19.17;6.43;;;;;;;;;;4898071;29;20036;-78
2022/03/14 10:12:32;;;;;;;9.32;5.13;;;;;;;;;;4898672;29;20548;-73
2022/03/14 10:15:00;;;;;;;7.68;4.90;;;;;;;;;;4897442;29;20068;-78
2022/03/14 10:17:27;;;;;;;7.55;4.82;;;;;;;;;;4897852;29;20092;-79
2022/03/14 10:19:57;;;;;;;6.53;4.68;;;;;;;;;;4898565;29;20621;-75
2022/03/14 10:22:23;;;;;;;7.97;4.93;;;;;;;;;;4898097;29;20032;-80
2022/03/14 10:25:01;;;;;;;8.10;5.45;;;;;;;;;;4898448;29;20025;-80
2022/03/14 10:27:27;;;;;;;8.98;4.82;;;;;;;;;;4898609;29;20040;-80
2022/03/14 10:29:53;;;;;;;8.00;5.50;;;;;;;;;;4898054;29;20029;-83
2022/03/14 10:32:31;;;;;;;7.40;5.05;;;;;;;;;;4898116;29;20135;-82
2022/03/14 10:35:05;;;;;;;8.23;5.60;;;;;;;;;;4898066;29;20057;-77
2022/03/14 10:37:33;;;;;;;9.52;5.22;;;;;;;;;;4897799;29;20048;-78
2022/03/14 10:40:00;;;;;;;8.57;6.35;;;;;;;;;;4898140;29;20032;-79
2022/03/14 10:42:27;;;;;;;8.82;5.22;;;;;;;;;;4898207;29;20036;-80
2022/03/14 10:44:55;;;;;;;9.10;5.90;;;;;;;;;;4898702;29;20043;-78
2022/03/14 10:47:24;;;;;;;14.90;7.13;;;;;;;;;;4898834;29;20041;-71
2022/03/14 10:49:50;;;;;;;14.07;6.20;;;;;;;;;;4899612;29;20071;-79
2022/03/14 10:52:20;;;;;;;23.38;6.82;;;;;;;;;;4899710;29;20045;-80
2022/03/14 10:54:46;;;;;;;8.75;5.95;;;;;;;;;;4898273;29;20553;-78
2022/03/14 10:57:13;;;;;;;8.68;5.80;;;;;;;;;;4897849;29;20036;-79
2022/03/14 10:59:40;;;;;;;8.68;5.55;;;;;;;;;;4897885;29;20076;-78
2022/03/14 11:02:09;;;;;;;8.48;6.00;;;;;;;;;;4898003;29;20041;-80
2022/03/14 11:04:45;;;;;;;9.40;6.65;;;;;;;;;;4897744;29;20097;-75
2022/03/14 11:07:13;;;;;;;9.25;6.53;;;;;;;;;;4897370;29;20044;-82
2022/03/14 11:09:42;;;;;;;8.93;6.35;;;;;;;;;;4897954;29;20357;-78
2022/03/14 11:12:21;;;;;;;10.20;6.22;;;;;;;;;;4897825;29;20036;-78
2022/03/14 11:14:55;;;;;;;8.27;5.65;;;;;;;;;;4897619;29;20150;-83
2022/03/14 11:17:24;;;;;;;8.75;5.85;;;;;;;;;;4899824;29;20067;-78
2022/03/14 11:19:52;;;;;;;8.38;5.95;;;;;;;;;;4913686;29;20053;-82
2022/03/14 11:22:19;;;;;;;8.23;5.75;;;;;;;;;;4898529;29;20392;-83
2022/03/14 11:24:48;;;;;;;9.07;5.70;;;;;;;;;;4897387;29;20099;-79
2022/03/14 11:27:21;;;;;;;12.48;6.45;;;;;;;;;;4898436;29;20447;-79
2022/03/14 11:29:49;;;;;;;12.35;7.40;;;;;;;;;;4897294;29;20045;-79
2022/03/14 11:32:16;;;;;;;10.20;6.57;;;;;;;;;;4897465;29;20443;-80
2022/03/14 11:34:45;;;;;;;12.25;6.38;;;;;;;;;;4900326;29;20368;-70
2022/03/14 11:37:12;;;;;;;8.52;5.43;;;;;;;;;;4901883;29;20024;-76
2022/03/14 11:39:39;;;;;;;18.77;8.63;;;;;;;;;;4901748;29;20048;-77
2022/03/14 11:42:05;;;;;;;18.25;7.53;;;;;;;;;;4898852;29;20025;-75
2022/03/14 11:44:32;;;;;;;9.27;5.70;;;;;;;;;;4901205;29;20040;-74
2022/03/14 11:46:59;;;;;;;9.20;6.78;;;;;;;;;;4901432;29;20025;-77
2022/03/14 11:49:29;;;;;;;12.48;5.95;;;;;;;;;;4901387;29;20404;-74
2022/03/14 11:52:24;;;;;;;21.52;10.15;;;;;;;;;;4900881;29;20503;-73
2022/03/14 11:54:52;;;;;;;8.23;5.70;;;;;;;;;;4900152;29;20044;-74
2022/03/14 11:57:37;;;;;;;10.80;6.40;;;;;;;;;;4900473;29;20036;-79
2022/03/14 12:00:21;;;;;;;8.60;5.72;;;;;;;;;;4900625;29;20037;-79
2022/03/14 12:02:49;;;;;;;10.20;6.07;;;;;;;;;;4900593;29;20345;-78
2022/03/14 12:05:41;;;;;;;9.48;6.07;;;;;;;;;;4900201;29;20124;-75
2022/03/14 12:08:27;;;;;;;10.75;6.07;;;;;;;;;;4899719;29;20045;-77
2022/03/14 12:10:53;;;;;;;9.63;6.03;;;;;;;;;;4899994;29;20412;-76
2022/03/14 12:13:44;;;;;;;10.05;5.50;;;;;;;;;;4895310;29;20020;-73
2022/03/14 12:16:37;;;;;;;11.35;6.35;;;;;;;;;;4898814;29;20044;-76
2022/03/14 12:19:28;;;;;;;8.20;5.85;;;;;;;;;;4898061;29;20444;-76
2022/03/14 12:21:55;;;;;;;9.77;6.07;;;;;;;;;;4899353;29;20037;-78
2022/03/14 12:24:44;;;;;;;11.20;6.80;;;;;;;;;;4898545;29;20039;-76
2022/03/14 12:27:14;;;;;;;11.95;7.00;;;;;;;;;;4899946;29;20039;-74
2022/03/14 12:29:42;;;;;;;10.30;6.78;;;;;;;;;;4899775;29;20033;-75
2022/03/14 12:32:34;;;;;;;10.98;6.35;;;;;;;;;;4899471;29;20376;-76
2022/03/14 12:35:05;;;;;;;9.80;6.55;;;;;;;;;;4899833;29;20068;-76
2022/03/14 12:37:40;;;;;;;9.63;5.90;;;;;;;;;;4899449;29;20036;-69
2022/03/14 12:40:08;;;;;;;11.02;6.55;;;;;;;;;;4899976;29;20036;-72
2022/03/14 12:42:42;;;;;;;9.02;6.25;;;;;;;;;;4899757;29;20064;-74
2022/03/14 12:45:29;;;;;;;7.93;5.45;;;;;;;;;;4899155;29;20116;-70
2022/03/14 12:48:05;;;;;;;10.45;6.35;;;;;;;;;;4899236;29;20051;-74
2022/03/14 12:50:44;;;;;;;9.07;5.53;;;;;;;;;;4899577;29;20065;-69
2022/03/14 12:53:17;;;;;;;9.23;5.90;;;;;;;;;;4900150;29;20040;-71
2022/03/14 12:55:44;;;;;;;9.38;6.68;;;;;;;;;;4900130;29;20122;-70
2022/03/14 12:58:16;;;;;;;12.77;5.97;;;;;;;;;;4899793;29;20159;-71
2022/03/14 13:00:42;;;;;;;17.48;7.15;;;;;;;;;;4899085;29;20476;-71
2022/03/14 13:03:09;;;;;;;9.55;6.18;;;;;;;;;;4899800;29;20032;-70
2022/03/14 13:05:41;;;;;;;11.05;6.40;;;;;;;;;;4899355;29;20058;-70
2022/03/14 13:08:07;;;;;;;9.65;5.97;;;;;;;;;;4899241;29;20407;-69
2022/03/14 13:10:40;;;;;;;10.90;6.28;;;;;;;;;;4899285;29;20112;-69
2022/03/14 13:13:11;;;;;;;7.72;5.65;;;;;;;;;;4899664;29;20047;-70
2022/03/14 13:15:38;;;;;;;8.43;5.38;;;;;;;;;;4899122;29;20119;-70
2022/03/14 13:18:22;;;;;;;8.55;5.25;;;;;;;;;;4912269;29;20029;-74
2022/03/14 13:20:48;;;;;;;8.55;5.55;;;;;;;;;;4888583;29;20044;-68
2022/03/14 13:23:20;;;;;;;8.35;5.35;;;;;;;;;;4880316;29;20115;-70
2022/03/14 13:25:51;;;;;;;9.52;6.13;;;;;;;;;;4890069;29;20039;-68
2022/03/14 13:28:30;;;;;;;9.13;5.75;;;;;;;;;;4893236;29;20500;-72
2022/03/14 13:30:58;;;;;;;7.22;4.95;;;;;;;;;;4892124;29;20395;-70
2022/03/14 13:33:28;;;;;;;11.88;5.40;;;;;;;;;;4893620;29;20025;-69
2022/03/14 13:35:56;;;;;;;9.90;5.15;;;;;;;;;;4911128;29;20041;-71
2022/03/14 13:38:38;;;;;;;11.18;5.80;;;;;;;;;;4894640;29;20097;-76
2022/03/14 13:41:15;;;;;;;8.52;5.22;;;;;;;;;;4899057;29;20032;-73
2022/03/14 13:43:44;;;;;;;7.28;5.13;;;;;;;;;;4897763;29;20047;-83
2022/03/14 13:46:37;;;;;;;12.95;5.50;;;;;;;;;;4889436;29;20029;-74
2022/03/14 13:49:04;;;;;;;8.73;5.28;;;;;;;;;;4878978;29;20128;-75
2022/03/14 13:51:38;;;;;;;7.57;5.30;;;;;;;;;;4879034;29;20115;-74
2022/03/14 13:54:11;;;;;;;7.28;4.88;;;;;;;;;;4880513;29;20060;-74
2022/03/14 13:56:41;;;;;;;8.90;5.13;;;;;;;;;;4880119;29;20120;-72
2022/03/14 13:59:06;;;;;;;6.50;5.07;;;;;;;;;;4909160;29;20287;-78
2022/03/14 14:01:39;;;;;;;7.13;4.63;;;;;;;;;;4897056;29;20116;-79
2022/03/14 14:04:24;;;;;;;7.03;4.67;;;;;;;;;;4897358;29;20139;-76
2022/03/14 14:06:51;;;;;;;8.27;4.93;;;;;;;;;;4896995;29;20314;-77
2022/03/14 14:09:40;;;;;;;9.73;4.95;;;;;;;;;;4897328;29;20498;-75
2022/03/14 14:12:20;;;;;;;7.95;4.57;;;;;;;;;;4897085;29;20039;-76
2022/03/14 14:14:49;;;;;;;10.98;6.18;;;;;;;;;;4895437;29;20113;-80
2022/03/14 14:17:19;;;;;;;9.13;5.28;;;;;;;;;;4893791;29;20352;-78
2022/03/14 14:20:09;;;;;;;7.82;5.28;;;;;;;;;;4896615;29;20047;-78
2022/03/14 14:22:59;;;;;;;20.02;7.68;;;;;;;;;;4898037;29;20029;-78
2022/03/14 14:25:29;;;;;;;9.07;5.20;;;;;;;;;;4897951;29;20052;-70
2022/03/14 14:28:04;;;;;;;9.68;5.43;;;;;;;;;;4898063;29;20028;-70
2022/03/14 14:30:47;;;;;;;8.45;5.10;;;;;;;;;;4897559;29;20451;-70
2022/03/14 14:33:18;;;;;;;7.85;5.18;;;;;;;;;;4897695;29;20116;-72
2022/03/14 14:35:47;;;;;;;10.93;5.50;;;;;;;;;;4897699;29;20044;-70